sensor_id;sensor_type;location;lat;lon;timestamp;P1;durP1;ratioP1;P2;durP2;ratioP2
5805;SDS011;2929;50.810;8.342;2022-11-15T00:01:28;31.00;;;18.17;;
5805;SDS011;2929;50.810;8.342;2022-11-15T00:04:14;28.43;;;16.30;;
5805;SDS011;2929;50.810;8.342;2022-11-15T00:07:01;26.67;;;15.07;;
5805;SDS011;2929;50.810;8.342;2022-11-15T00:09:46;27.90;;;16.73;;
5805;SDS011;2929;50.810;8.342;2022-11-15T00:12:32;25.83;;;14.40;;
5805;SDS011;2929;50.810;8.342;2022-11-15T00:15:17;25.50;;;14.90;;
5805;SDS011;2929;50.810;8.342;2022-11-15T00:18:03;24.50;;;14.53;;
5805;SDS011;2929;50.810;8.342;2022-11-15T00:20:49;20.73;;;13.03;;
5805;SDS011;2929;50.810;8.342;2022-11-15T00:23:37;20.80;;;12.80;;
5805;SDS011;2929;50.810;8.342;2022-11-15T00:26:22;16.93;;;11.47;;
5805;SDS011;2929;50.810;8.342;2022-11-15T00:29:08;21.80;;;12.90;;
5805;SDS011;2929;50.810;8.342;2022-11-15T00:31:53;21.50;;;14.10;;
5805;SDS011;2929;50.810;8.342;2022-11-15T00:34:39;19.50;;;13.37;;
5805;SDS011;2929;50.810;8.342;2022-11-15T00:37:24;25.23;;;11.37;;
5805;SDS011;2929;50.810;8.342;2022-11-15T00:40:12;24.50;;;12.93;;
5805;SDS011;2929;50.810;8.342;2022-11-15T00:42:58;21.67;;;12.97;;
5805;SDS011;2929;50.810;8.342;2022-11-15T00:45:44;18.80;;;11.83;;
5805;SDS011;2929;50.810;8.342;2022-11-15T00:48:29;19.53;;;12.53;;
5805;SDS011;2929;50.810;8.342;2022-11-15T00:51:15;20.30;;;12.80;;
5805;SDS011;2929;50.810;8.342;2022-11-15T00:54:00;30.97;;;13.90;;
5805;SDS011;2929;50.810;8.342;2022-11-15T00:56:47;18.70;;;11.97;;
5805;SDS011;2929;50.810;8.342;2022-11-15T00:59:34;29.63;;;16.90;;
5805;SDS011;2929;50.810;8.342;2022-11-15T01:02:19;29.27;;;14.27;;
5805;SDS011;2929;50.810;8.342;2022-11-15T01:05:05;19.47;;;11.27;;
5805;SDS011;2929;50.810;8.342;2022-11-15T01:07:52;20.23;;;10.40;;
5805;SDS011;2929;50.810;8.342;2022-11-15T01:10:38;20.50;;;9.40;;
5805;SDS011;2929;50.810;8.342;2022-11-15T01:13:24;15.00;;;9.70;;
5805;SDS011;2929;50.810;8.342;2022-11-15T01:16:11;13.07;;;9.37;;
5805;SDS011;2929;50.810;8.342;2022-11-15T01:18:58;20.20;;;9.70;;
5805;SDS011;2929;50.810;8.342;2022-11-15T01:21:44;21.47;;;9.47;;
5805;SDS011;2929;50.810;8.342;2022-11-15T01:24:30;16.90;;;9.53;;
5805;SDS011;2929;50.810;8.342;2022-11-15T01:27:15;14.87;;;9.20;;
5805;SDS011;2929;50.810;8.342;2022-11-15T01:30:03;13.63;;;8.00;;
5805;SDS011;2929;50.810;8.342;2022-11-15T01:32:49;18.77;;;9.23;;
5805;SDS011;2929;50.810;8.342;2022-11-15T01:35:37;14.57;;;8.67;;
5805;SDS011;2929;50.810;8.342;2022-11-15T01:38:24;12.57;;;8.63;;
5805;SDS011;2929;50.810;8.342;2022-11-15T01:41:14;20.50;;;9.30;;
5805;SDS011;2929;50.810;8.342;2022-11-15T01:47:25;13.47;;;8.60;;
5805;SDS011;2929;50.810;8.342;2022-11-15T01:50:16;14.23;;;8.57;;
5805;SDS011;2929;50.810;8.342;2022-11-15T01:53:05;12.40;;;8.23;;
5805;SDS011;2929;50.810;8.342;2022-11-15T01:55:51;13.07;;;8.87;;
5805;SDS011;2929;50.810;8.342;2022-11-15T01:58:37;15.07;;;9.10;;
5805;SDS011;2929;50.810;8.342;2022-11-15T02:01:24;13.10;;;8.70;;
5805;SDS011;2929;50.810;8.342;2022-11-15T02:04:13;12.37;;;8.60;;
5805;SDS011;2929;50.810;8.342;2022-11-15T02:07:01;15.73;;;8.80;;
5805;SDS011;2929;50.810;8.342;2022-11-15T02:09:47;16.73;;;8.13;;
5805;SDS011;2929;50.810;8.342;2022-11-15T02:12:34;17.27;;;7.90;;
5805;SDS011;2929;50.810;8.342;2022-11-15T02:15:20;14.07;;;8.47;;
5805;SDS011;2929;50.810;8.342;2022-11-15T02:18:10;18.97;;;8.47;;
5805;SDS011;2929;50.810;8.342;2022-11-15T02:21:08;13.33;;;7.73;;
5805;SDS011;2929;50.810;8.342;2022-11-15T02:27:59;17.17;;;7.90;;
5805;SDS011;2929;50.810;8.342;2022-11-15T02:31:07;14.80;;;8.00;;
5805;SDS011;2929;50.810;8.342;2022-11-15T02:33:59;16.63;;;7.70;;
5805;SDS011;2929;50.810;8.342;2022-11-15T02:36:54;12.60;;;8.40;;
5805;SDS011;2929;50.810;8.342;2022-11-15T02:39:46;18.57;;;8.40;;
5805;SDS011;2929;50.810;8.342;2022-11-15T02:42:36;13.80;;;8.67;;
5805;SDS011;2929;50.810;8.342;2022-11-15T02:45:47;12.53;;;8.30;;
5805;SDS011;2929;50.810;8.342;2022-11-15T02:48:37;16.53;;;8.20;;
5805;SDS011;2929;50.810;8.342;2022-11-15T02:51:23;16.70;;;8.50;;
5805;SDS011;2929;50.810;8.342;2022-11-15T02:54:10;16.63;;;9.07;;
5805;SDS011;2929;50.810;8.342;2022-11-15T02:56:59;12.40;;;8.43;;
5805;SDS011;2929;50.810;8.342;2022-11-15T03:03:01;17.00;;;9.00;;
5805;SDS011;2929;50.810;8.342;2022-11-15T03:06:02;16.53;;;8.50;;
5805;SDS011;2929;50.810;8.342;2022-11-15T03:08:57;14.73;;;8.80;;
5805;SDS011;2929;50.810;8.342;2022-11-15T03:11:48;13.57;;;9.13;;
5805;SDS011;2929;50.810;8.342;2022-11-15T03:14:40;14.33;;;8.13;;
5805;SDS011;2929;50.810;8.342;2022-11-15T03:17:35;14.70;;;8.10;;
5805;SDS011;2929;50.810;8.342;2022-11-15T03:20:25;12.60;;;7.50;;
5805;SDS011;2929;50.810;8.342;2022-11-15T03:23:14;16.17;;;8.60;;
5805;SDS011;2929;50.810;8.342;2022-11-15T03:26:00;11.80;;;8.40;;
5805;SDS011;2929;50.810;8.342;2022-11-15T03:28:47;10.80;;;8.13;;
5805;SDS011;2929;50.810;8.342;2022-11-15T03:31:36;11.63;;;7.70;;
5805;SDS011;2929;50.810;8.342;2022-11-15T03:34:32;11.10;;;7.30;;
5805;SDS011;2929;50.810;8.342;2022-11-15T03:37:22;13.03;;;7.40;;
5805;SDS011;2929;50.810;8.342;2022-11-15T03:40:15;10.43;;;7.87;;
5805;SDS011;2929;50.810;8.342;2022-11-15T03:43:03;12.33;;;7.73;;
5805;SDS011;2929;50.810;8.342;2022-11-15T03:45:53;12.83;;;8.00;;
5805;SDS011;2929;50.810;8.342;2022-11-15T03:48:44;19.37;;;7.87;;
5805;SDS011;2929;50.810;8.342;2022-11-15T03:51:33;12.17;;;7.67;;
5805;SDS011;2929;50.810;8.342;2022-11-15T03:54:19;14.87;;;6.90;;
5805;SDS011;2929;50.810;8.342;2022-11-15T03:57:06;12.90;;;6.57;;
5805;SDS011;2929;50.810;8.342;2022-11-15T03:59:51;13.60;;;7.17;;
5805;SDS011;2929;50.810;8.342;2022-11-15T04:02:37;10.67;;;6.83;;
5805;SDS011;2929;50.810;8.342;2022-11-15T04:05:22;10.90;;;6.53;;
5805;SDS011;2929;50.810;8.342;2022-11-15T04:08:08;12.40;;;6.77;;
5805;SDS011;2929;50.810;8.342;2022-11-15T04:10:53;16.00;;;6.77;;
5805;SDS011;2929;50.810;8.342;2022-11-15T04:13:40;11.93;;;6.93;;
5805;SDS011;2929;50.810;8.342;2022-11-15T04:16:26;14.10;;;6.60;;
5805;SDS011;2929;50.810;8.342;2022-11-15T04:19:12;11.10;;;6.10;;
5805;SDS011;2929;50.810;8.342;2022-11-15T04:22:15;9.70;;;6.90;;
5805;SDS011;2929;50.810;8.342;2022-11-15T04:25:18;10.37;;;6.50;;
5805;SDS011;2929;50.810;8.342;2022-11-15T04:28:04;9.07;;;6.50;;
5805;SDS011;2929;50.810;8.342;2022-11-15T04:30:51;9.57;;;6.60;;
5805;SDS011;2929;50.810;8.342;2022-11-15T04:33:37;11.00;;;6.70;;
5805;SDS011;2929;50.810;8.342;2022-11-15T04:36:22;9.53;;;6.73;;
5805;SDS011;2929;50.810;8.342;2022-11-15T04:39:26;11.30;;;6.90;;
5805;SDS011;2929;50.810;8.342;2022-11-15T04:42:12;10.50;;;6.57;;
5805;SDS011;2929;50.810;8.342;2022-11-15T04:44:57;7.47;;;5.90;;
5805;SDS011;2929;50.810;8.342;2022-11-15T04:47:45;7.80;;;5.80;;
5805;SDS011;2929;50.810;8.342;2022-11-15T04:50:31;11.43;;;5.50;;
5805;SDS011;2929;50.810;8.342;2022-11-15T04:53:16;11.40;;;6.00;;
5805;SDS011;2929;50.810;8.342;2022-11-15T04:56:02;8.23;;;5.23;;
5805;SDS011;2929;50.810;8.342;2022-11-15T04:58:48;11.17;;;5.50;;
5805;SDS011;2929;50.810;8.342;2022-11-15T05:01:34;12.00;;;5.00;;
5805;SDS011;2929;50.810;8.342;2022-11-15T05:04:21;13.37;;;5.63;;
5805;SDS011;2929;50.810;8.342;2022-11-15T05:07:05;10.07;;;5.97;;
5805;SDS011;2929;50.810;8.342;2022-11-15T05:09:51;8.93;;;4.87;;
5805;SDS011;2929;50.810;8.342;2022-11-15T05:12:36;7.73;;;4.67;;
5805;SDS011;2929;50.810;8.342;2022-11-15T05:15:22;7.20;;;4.70;;
5805;SDS011;2929;50.810;8.342;2022-11-15T05:18:07;5.60;;;4.43;;
5805;SDS011;2929;50.810;8.342;2022-11-15T05:20:54;10.00;;;4.60;;
5805;SDS011;2929;50.810;8.342;2022-11-15T05:23:40;7.00;;;4.50;;
5805;SDS011;2929;50.810;8.342;2022-11-15T05:26:25;7.90;;;4.40;;
5805;SDS011;2929;50.810;8.342;2022-11-15T05:29:11;4.90;;;4.40;;
5805;SDS011;2929;50.810;8.342;2022-11-15T05:31:57;7.23;;;4.20;;
5805;SDS011;2929;50.810;8.342;2022-11-15T05:34:43;7.70;;;5.23;;
5805;SDS011;2929;50.810;8.342;2022-11-15T05:37:30;9.30;;;4.00;;
5805;SDS011;2929;50.810;8.342;2022-11-15T05:40:16;5.50;;;4.00;;
5805;SDS011;2929;50.810;8.342;2022-11-15T05:43:01;6.80;;;4.90;;
5805;SDS011;2929;50.810;8.342;2022-11-15T05:45:49;5.53;;;4.47;;
5805;SDS011;2929;50.810;8.342;2022-11-15T05:48:35;13.97;;;5.10;;
5805;SDS011;2929;50.810;8.342;2022-11-15T05:51:22;8.20;;;4.33;;
5805;SDS011;2929;50.810;8.342;2022-11-15T05:54:10;8.27;;;4.40;;
5805;SDS011;2929;50.810;8.342;2022-11-15T05:56:56;6.00;;;4.03;;
5805;SDS011;2929;50.810;8.342;2022-11-15T05:59:42;5.27;;;3.90;;
5805;SDS011;2929;50.810;8.342;2022-11-15T06:02:28;5.60;;;3.90;;
5805;SDS011;2929;50.810;8.342;2022-11-15T06:05:14;8.47;;;4.20;;
5805;SDS011;2929;50.810;8.342;2022-11-15T06:08:00;7.67;;;3.90;;
5805;SDS011;2929;50.810;8.342;2022-11-15T06:10:47;6.70;;;4.20;;
5805;SDS011;2929;50.810;8.342;2022-11-15T06:13:33;6.30;;;4.50;;
5805;SDS011;2929;50.810;8.342;2022-11-15T06:16:19;8.67;;;4.80;;
5805;SDS011;2929;50.810;8.342;2022-11-15T06:19:05;7.10;;;4.27;;
5805;SDS011;2929;50.810;8.342;2022-11-15T06:21:51;7.20;;;4.80;;
5805;SDS011;2929;50.810;8.342;2022-11-15T06:24:37;8.13;;;4.40;;
5805;SDS011;2929;50.810;8.342;2022-11-15T06:27:24;7.80;;;3.97;;
5805;SDS011;2929;50.810;8.342;2022-11-15T06:30:10;13.33;;;4.93;;
5805;SDS011;2929;50.810;8.342;2022-11-15T06:32:59;6.87;;;4.77;;
5805;SDS011;2929;50.810;8.342;2022-11-15T06:35:46;7.17;;;5.33;;
5805;SDS011;2929;50.810;8.342;2022-11-15T06:38:32;7.90;;;4.87;;
5805;SDS011;2929;50.810;8.342;2022-11-15T06:41:17;10.90;;;7.00;;
5805;SDS011;2929;50.810;8.342;2022-11-15T06:44:06;8.57;;;5.87;;
5805;SDS011;2929;50.810;8.342;2022-11-15T06:46:51;7.20;;;5.57;;
5805;SDS011;2929;50.810;8.342;2022-11-15T06:49:37;11.23;;;8.50;;
5805;SDS011;2929;50.810;8.342;2022-11-15T06:52:23;7.83;;;6.60;;
5805;SDS011;2929;50.810;8.342;2022-11-15T06:55:09;10.63;;;6.23;;
5805;SDS011;2929;50.810;8.342;2022-11-15T06:57:54;8.47;;;6.27;;
5805;SDS011;2929;50.810;8.342;2022-11-15T07:00:41;5.70;;;4.57;;
5805;SDS011;2929;50.810;8.342;2022-11-15T07:03:27;7.50;;;4.93;;
5805;SDS011;2929;50.810;8.342;2022-11-15T07:06:12;8.63;;;5.57;;
5805;SDS011;2929;50.810;8.342;2022-11-15T07:08:58;5.90;;;4.80;;
5805;SDS011;2929;50.810;8.342;2022-11-15T07:11:44;10.10;;;5.20;;
5805;SDS011;2929;50.810;8.342;2022-11-15T07:14:29;8.20;;;5.10;;
5805;SDS011;2929;50.810;8.342;2022-11-15T07:17:17;7.10;;;5.80;;
5805;SDS011;2929;50.810;8.342;2022-11-15T07:20:02;10.13;;;5.10;;
5805;SDS011;2929;50.810;8.342;2022-11-15T07:22:49;5.00;;;4.50;;
5805;SDS011;2929;50.810;8.342;2022-11-15T07:25:34;6.40;;;5.07;;
5805;SDS011;2929;50.810;8.342;2022-11-15T07:28:20;8.90;;;5.00;;
5805;SDS011;2929;50.810;8.342;2022-11-15T07:31:06;9.17;;;4.80;;
5805;SDS011;2929;50.810;8.342;2022-11-15T07:33:55;9.70;;;6.07;;
5805;SDS011;2929;50.810;8.342;2022-11-15T07:36:41;9.03;;;4.80;;
5805;SDS011;2929;50.810;8.342;2022-11-15T07:39:27;8.40;;;5.37;;
5805;SDS011;2929;50.810;8.342;2022-11-15T07:42:12;6.17;;;4.80;;
5805;SDS011;2929;50.810;8.342;2022-11-15T07:45:15;9.40;;;4.60;;
5805;SDS011;2929;50.810;8.342;2022-11-15T07:48:01;8.23;;;5.67;;
5805;SDS011;2929;50.810;8.342;2022-11-15T07:50:48;6.73;;;4.97;;
5805;SDS011;2929;50.810;8.342;2022-11-15T07:53:33;13.47;;;4.90;;
5805;SDS011;2929;50.810;8.342;2022-11-15T07:56:19;6.20;;;4.60;;
5805;SDS011;2929;50.810;8.342;2022-11-15T07:59:05;9.83;;;6.97;;
5805;SDS011;2929;50.810;8.342;2022-11-15T08:01:51;10.83;;;7.57;;
5805;SDS011;2929;50.810;8.342;2022-11-15T08:04:36;9.83;;;5.07;;
5805;SDS011;2929;50.810;8.342;2022-11-15T08:07:23;10.67;;;4.73;;
5805;SDS011;2929;50.810;8.342;2022-11-15T08:10:09;7.20;;;5.13;;
5805;SDS011;2929;50.810;8.342;2022-11-15T08:12:59;6.47;;;4.70;;
5805;SDS011;2929;50.810;8.342;2022-11-15T08:15:44;10.27;;;4.60;;
5805;SDS011;2929;50.810;8.342;2022-11-15T08:18:30;8.13;;;4.83;;
5805;SDS011;2929;50.810;8.342;2022-11-15T08:21:17;7.87;;;4.90;;
5805;SDS011;2929;50.810;8.342;2022-11-15T08:24:09;9.00;;;4.63;;
5805;SDS011;2929;50.810;8.342;2022-11-15T08:26:55;6.47;;;4.30;;
5805;SDS011;2929;50.810;8.342;2022-11-15T08:29:42;5.47;;;4.30;;
5805;SDS011;2929;50.810;8.342;2022-11-15T08:32:28;7.67;;;4.30;;
5805;SDS011;2929;50.810;8.342;2022-11-15T08:35:15;6.77;;;4.83;;
5805;SDS011;2929;50.810;8.342;2022-11-15T08:38:01;9.90;;;4.00;;
5805;SDS011;2929;50.810;8.342;2022-11-15T08:40:47;7.23;;;4.37;;
5805;SDS011;2929;50.810;8.342;2022-11-15T08:43:33;6.23;;;4.40;;
5805;SDS011;2929;50.810;8.342;2022-11-15T08:46:19;13.67;;;5.07;;
5805;SDS011;2929;50.810;8.342;2022-11-15T08:49:04;6.57;;;3.60;;
5805;SDS011;2929;50.810;8.342;2022-11-15T08:51:50;6.43;;;4.13;;
5805;SDS011;2929;50.810;8.342;2022-11-15T08:54:36;7.77;;;4.30;;
5805;SDS011;2929;50.810;8.342;2022-11-15T08:57:23;7.07;;;4.57;;
5805;SDS011;2929;50.810;8.342;2022-11-15T09:00:09;5.30;;;3.83;;
5805;SDS011;2929;50.810;8.342;2022-11-15T09:02:56;5.23;;;3.80;;
5805;SDS011;2929;50.810;8.342;2022-11-15T09:05:41;7.13;;;3.77;;
5805;SDS011;2929;50.810;8.342;2022-11-15T09:08:29;6.53;;;4.20;;
5805;SDS011;2929;50.810;8.342;2022-11-15T09:11:15;9.90;;;4.23;;
5805;SDS011;2929;50.810;8.342;2022-11-15T09:14:05;7.03;;;4.70;;
5805;SDS011;2929;50.810;8.342;2022-11-15T09:16:50;8.70;;;4.73;;
5805;SDS011;2929;50.810;8.342;2022-11-15T09:19:36;6.07;;;4.10;;
5805;SDS011;2929;50.810;8.342;2022-11-15T09:22:21;4.33;;;3.50;;
5805;SDS011;2929;50.810;8.342;2022-11-15T09:25:07;4.33;;;3.50;;
5805;SDS011;2929;50.810;8.342;2022-11-15T09:27:54;3.67;;;3.23;;
5805;SDS011;2929;50.810;8.342;2022-11-15T09:30:42;5.30;;;3.97;;
5805;SDS011;2929;50.810;8.342;2022-11-15T09:33:28;3.93;;;3.20;;
5805;SDS011;2929;50.810;8.342;2022-11-15T09:36:13;7.13;;;4.27;;
5805;SDS011;2929;50.810;8.342;2022-11-15T09:39:00;4.80;;;3.40;;
5805;SDS011;2929;50.810;8.342;2022-11-15T09:41:57;7.87;;;3.50;;
5805;SDS011;2929;50.810;8.342;2022-11-15T09:45:05;4.90;;;3.80;;
5805;SDS011;2929;50.810;8.342;2022-11-15T09:48:06;8.30;;;3.80;;
5805;SDS011;2929;50.810;8.342;2022-11-15T09:51:23;4.20;;;3.23;;
5805;SDS011;2929;50.810;8.342;2022-11-15T09:53:56;6.00;;;3.33;;
5805;SDS011;2929;50.810;8.342;2022-11-15T09:56:30;4.63;;;3.77;;
5805;SDS011;2929;50.810;8.342;2022-11-15T09:59:01;4.43;;;3.20;;
5805;SDS011;2929;50.810;8.342;2022-11-15T10:01:41;3.37;;;3.03;;
5805;SDS011;2929;50.810;8.342;2022-11-15T10:04:17;8.10;;;4.03;;
5805;SDS011;2929;50.810;8.342;2022-11-15T10:06:46;4.90;;;3.23;;
5805;SDS011;2929;50.810;8.342;2022-11-15T10:09:17;4.80;;;3.93;;
5805;SDS011;2929;50.810;8.342;2022-11-15T10:11:47;5.30;;;3.63;;
5805;SDS011;2929;50.810;8.342;2022-11-15T10:14:15;5.70;;;3.50;;
5805;SDS011;2929;50.810;8.342;2022-11-15T10:17:07;7.47;;;3.30;;
5805;SDS011;2929;50.810;8.342;2022-11-15T10:19:50;6.80;;;3.67;;
5805;SDS011;2929;50.810;8.342;2022-11-15T10:22:26;7.93;;;3.90;;
5805;SDS011;2929;50.810;8.342;2022-11-15T10:25:00;5.60;;;4.33;;
5805;SDS011;2929;50.810;8.342;2022-11-15T10:27:38;12.03;;;5.67;;
5805;SDS011;2929;50.810;8.342;2022-11-15T10:30:08;9.93;;;5.40;;
5805;SDS011;2929;50.810;8.342;2022-11-15T10:32:38;3.77;;;3.37;;
5805;SDS011;2929;50.810;8.342;2022-11-15T10:35:23;8.20;;;5.00;;
5805;SDS011;2929;50.810;8.342;2022-11-15T10:37:51;5.73;;;3.37;;
5805;SDS011;2929;50.810;8.342;2022-11-15T10:40:30;5.40;;;2.87;;
5805;SDS011;2929;50.810;8.342;2022-11-15T10:43:03;6.23;;;3.23;;
5805;SDS011;2929;50.810;8.342;2022-11-15T10:45:32;4.23;;;3.13;;
5805;SDS011;2929;50.810;8.342;2022-11-15T10:48:18;7.53;;;3.80;;
5805;SDS011;2929;50.810;8.342;2022-11-15T10:50:49;5.33;;;3.23;;
5805;SDS011;2929;50.810;8.342;2022-11-15T10:53:19;4.03;;;3.30;;
5805;SDS011;2929;50.810;8.342;2022-11-15T10:55:54;8.27;;;4.70;;
5805;SDS011;2929;50.810;8.342;2022-11-15T10:58:29;6.43;;;3.20;;
5805;SDS011;2929;50.810;8.342;2022-11-15T11:01:08;4.27;;;3.33;;
5805;SDS011;2929;50.810;8.342;2022-11-15T11:03:40;4.47;;;3.30;;
5805;SDS011;2929;50.810;8.342;2022-11-15T11:06:11;9.77;;;3.23;;
5805;SDS011;2929;50.810;8.342;2022-11-15T11:08:40;4.87;;;3.63;;
5805;SDS011;2929;50.810;8.342;2022-11-15T11:11:19;5.67;;;3.37;;
5805;SDS011;2929;50.810;8.342;2022-11-15T11:13:46;4.27;;;2.90;;
5805;SDS011;2929;50.810;8.342;2022-11-15T11:16:21;3.83;;;2.80;;
5805;SDS011;2929;50.810;8.342;2022-11-15T11:19:08;3.87;;;2.60;;
5805;SDS011;2929;50.810;8.342;2022-11-15T11:21:47;3.60;;;2.67;;
5805;SDS011;2929;50.810;8.342;2022-11-15T11:24:21;4.43;;;3.07;;
5805;SDS011;2929;50.810;8.342;2022-11-15T11:26:58;6.57;;;3.50;;
5805;SDS011;2929;50.810;8.342;2022-11-15T11:29:39;9.00;;;2.67;;
5805;SDS011;2929;50.810;8.342;2022-11-15T11:32:25;2.37;;;2.10;;
5805;SDS011;2929;50.810;8.342;2022-11-15T11:35:09;5.60;;;2.93;;
5805;SDS011;2929;50.810;8.342;2022-11-15T11:37:43;3.10;;;2.00;;
5805;SDS011;2929;50.810;8.342;2022-11-15T11:40:28;3.77;;;1.80;;
5805;SDS011;2929;50.810;8.342;2022-11-15T11:42:58;3.13;;;2.27;;
5805;SDS011;2929;50.810;8.342;2022-11-15T11:45:43;4.03;;;2.50;;
5805;SDS011;2929;50.810;8.342;2022-11-15T11:48:27;4.73;;;2.10;;
5805;SDS011;2929;50.810;8.342;2022-11-15T11:51:08;3.60;;;2.67;;
5805;SDS011;2929;50.810;8.342;2022-11-15T11:53:45;2.77;;;2.33;;
5805;SDS011;2929;50.810;8.342;2022-11-15T11:56:19;2.53;;;2.13;;
5805;SDS011;2929;50.810;8.342;2022-11-15T11:58:50;2.30;;;1.93;;
5805;SDS011;2929;50.810;8.342;2022-11-15T12:01:22;3.50;;;2.07;;
5805;SDS011;2929;50.810;8.342;2022-11-15T12:03:52;10.67;;;2.53;;
5805;SDS011;2929;50.810;8.342;2022-11-15T12:06:25;3.07;;;1.90;;
5805;SDS011;2929;50.810;8.342;2022-11-15T12:09:01;2.67;;;1.77;;
5805;SDS011;2929;50.810;8.342;2022-11-15T12:11:47;2.27;;;2.07;;
5805;SDS011;2929;50.810;8.342;2022-11-15T12:14:22;3.13;;;2.10;;
5805;SDS011;2929;50.810;8.342;2022-11-15T12:16:53;3.83;;;2.00;;
5805;SDS011;2929;50.810;8.342;2022-11-15T12:19:20;2.80;;;1.80;;
5805;SDS011;2929;50.810;8.342;2022-11-15T12:21:49;2.77;;;1.87;;
5805;SDS011;2929;50.810;8.342;2022-11-15T12:24:24;2.73;;;2.17;;
5805;SDS011;2929;50.810;8.342;2022-11-15T12:26:56;5.57;;;2.07;;
5805;SDS011;2929;50.810;8.342;2022-11-15T12:29:27;3.43;;;1.70;;
5805;SDS011;2929;50.810;8.342;2022-11-15T12:31:59;5.60;;;1.60;;
5805;SDS011;2929;50.810;8.342;2022-11-15T12:34:30;3.40;;;1.77;;
5805;SDS011;2929;50.810;8.342;2022-11-15T12:40:31;4.93;;;1.83;;
5805;SDS011;2929;50.810;8.342;2022-11-15T12:43:05;2.00;;;1.60;;
5805;SDS011;2929;50.810;8.342;2022-11-15T12:45:56;10.57;;;1.63;;
5805;SDS011;2929;50.810;8.342;2022-11-15T12:57:33;2.93;;;2.37;;
5805;SDS011;2929;50.810;8.342;2022-11-15T13:06:06;3.53;;;1.83;;
5805;SDS011;2929;50.810;8.342;2022-11-15T13:08:39;4.00;;;2.00;;
5805;SDS011;2929;50.810;8.342;2022-11-15T13:17:23;7.10;;;2.27;;
5805;SDS011;2929;50.810;8.342;2022-11-15T13:20:11;2.23;;;1.30;;
5805;SDS011;2929;50.810;8.342;2022-11-15T13:22:48;4.17;;;1.70;;
5805;SDS011;2929;50.810;8.342;2022-11-15T13:25:31;3.53;;;1.90;;
5805;SDS011;2929;50.810;8.342;2022-11-15T13:28:19;1.73;;;1.57;;
5805;SDS011;2929;50.810;8.342;2022-11-15T13:30:50;4.97;;;1.90;;
5805;SDS011;2929;50.810;8.342;2022-11-15T13:33:20;3.83;;;1.70;;
5805;SDS011;2929;50.810;8.342;2022-11-15T13:35:50;5.40;;;2.57;;
5805;SDS011;2929;50.810;8.342;2022-11-15T13:38:25;5.80;;;2.17;;
5805;SDS011;2929;50.810;8.342;2022-11-15T13:40:53;2.10;;;1.90;;
5805;SDS011;2929;50.810;8.342;2022-11-15T13:43:26;6.60;;;1.70;;
5805;SDS011;2929;50.810;8.342;2022-11-15T13:46:05;3.70;;;1.80;;
5805;SDS011;2929;50.810;8.342;2022-11-15T13:48:34;1.93;;;1.50;;
5805;SDS011;2929;50.810;8.342;2022-11-15T13:51:01;1.83;;;1.50;;
5805;SDS011;2929;50.810;8.342;2022-11-15T13:53:31;2.03;;;1.60;;
5805;SDS011;2929;50.810;8.342;2022-11-15T13:55:59;3.10;;;1.60;;
5805;SDS011;2929;50.810;8.342;2022-11-15T13:58:28;1.90;;;1.63;;
5805;SDS011;2929;50.810;8.342;2022-11-15T14:00:59;2.37;;;1.93;;
5805;SDS011;2929;50.810;8.342;2022-11-15T14:03:29;1.83;;;1.73;;
5805;SDS011;2929;50.810;8.342;2022-11-15T14:06:02;6.77;;;1.87;;
5805;SDS011;2929;50.810;8.342;2022-11-15T14:08:32;4.67;;;1.83;;
5805;SDS011;2929;50.810;8.342;2022-11-15T14:11:07;2.40;;;1.50;;
5805;SDS011;2929;50.810;8.342;2022-11-15T14:13:38;4.03;;;2.40;;
5805;SDS011;2929;50.810;8.342;2022-11-15T14:16:13;4.57;;;2.77;;
5805;SDS011;2929;50.810;8.342;2022-11-15T14:18:43;2.93;;;2.00;;
5805;SDS011;2929;50.810;8.342;2022-11-15T14:21:12;3.60;;;2.40;;
5805;SDS011;2929;50.810;8.342;2022-11-15T14:23:39;3.50;;;1.97;;
5805;SDS011;2929;50.810;8.342;2022-11-15T14:26:10;4.97;;;3.00;;
5805;SDS011;2929;50.810;8.342;2022-11-15T14:28:52;6.93;;;3.53;;
5805;SDS011;2929;50.810;8.342;2022-11-15T14:31:19;4.87;;;3.20;;
5805;SDS011;2929;50.810;8.342;2022-11-15T14:33:48;4.60;;;3.50;;
5805;SDS011;2929;50.810;8.342;2022-11-15T14:36:16;11.90;;;5.23;;
5805;SDS011;2929;50.810;8.342;2022-11-15T14:38:44;11.80;;;4.30;;
5805;SDS011;2929;50.810;8.342;2022-11-15T14:41:16;9.10;;;4.90;;
5805;SDS011;2929;50.810;8.342;2022-11-15T14:43:45;7.67;;;4.60;;
5805;SDS011;2929;50.810;8.342;2022-11-15T14:46:13;13.57;;;5.60;;
5805;SDS011;2929;50.810;8.342;2022-11-15T14:48:40;11.23;;;5.97;;
5805;SDS011;2929;50.810;8.342;2022-11-15T14:51:15;10.03;;;6.17;;
5805;SDS011;2929;50.810;8.342;2022-11-15T14:53:43;10.87;;;5.30;;
5805;SDS011;2929;50.810;8.342;2022-11-15T14:56:11;7.70;;;5.40;;
5805;SDS011;2929;50.810;8.342;2022-11-15T14:58:39;9.73;;;5.07;;
5805;SDS011;2929;50.810;8.342;2022-11-15T15:01:10;10.60;;;5.47;;
5805;SDS011;2929;50.810;8.342;2022-11-15T15:03:40;9.63;;;5.90;;
5805;SDS011;2929;50.810;8.342;2022-11-15T15:06:09;9.40;;;5.63;;
5805;SDS011;2929;50.810;8.342;2022-11-15T15:08:39;15.53;;;8.30;;
5805;SDS011;2929;50.810;8.342;2022-11-15T15:11:07;17.77;;;9.17;;
5805;SDS011;2929;50.810;8.342;2022-11-15T15:13:40;12.63;;;7.43;;
5805;SDS011;2929;50.810;8.342;2022-11-15T15:16:07;16.90;;;4.90;;
5805;SDS011;2929;50.810;8.342;2022-11-15T15:18:34;11.10;;;5.17;;
5805;SDS011;2929;50.810;8.342;2022-11-15T15:21:01;8.40;;;5.00;;
5805;SDS011;2929;50.810;8.342;2022-11-15T15:23:32;9.90;;;6.57;;
5805;SDS011;2929;50.810;8.342;2022-11-15T15:26:02;8.00;;;5.57;;
5805;SDS011;2929;50.810;8.342;2022-11-15T15:28:29;7.10;;;5.50;;
5805;SDS011;2929;50.810;8.342;2022-11-15T15:30:56;12.40;;;5.20;;
5805;SDS011;2929;50.810;8.342;2022-11-15T15:33:23;14.53;;;5.70;;
5805;SDS011;2929;50.810;8.342;2022-11-15T15:35:51;7.97;;;5.07;;
5805;SDS011;2929;50.810;8.342;2022-11-15T15:38:18;8.27;;;5.30;;
5805;SDS011;2929;50.810;8.342;2022-11-15T15:40:46;8.57;;;5.80;;
5805;SDS011;2929;50.810;8.342;2022-11-15T15:43:15;11.63;;;5.73;;
5805;SDS011;2929;50.810;8.342;2022-11-15T15:45:42;10.40;;;6.40;;
5805;SDS011;2929;50.810;8.342;2022-11-15T15:48:11;8.13;;;4.90;;
5805;SDS011;2929;50.810;8.342;2022-11-15T15:50:39;10.40;;;5.33;;
5805;SDS011;2929;50.810;8.342;2022-11-15T15:53:08;12.90;;;5.63;;
5805;SDS011;2929;50.810;8.342;2022-11-15T15:55:37;6.93;;;5.03;;
5805;SDS011;2929;50.810;8.342;2022-11-15T15:58:04;5.53;;;4.43;;
5805;SDS011;2929;50.810;8.342;2022-11-15T16:00:34;7.73;;;5.20;;
5805;SDS011;2929;50.810;8.342;2022-11-15T16:03:02;8.37;;;5.27;;
5805;SDS011;2929;50.810;8.342;2022-11-15T16:05:29;11.80;;;5.27;;
5805;SDS011;2929;50.810;8.342;2022-11-15T16:07:56;7.27;;;5.20;;
5805;SDS011;2929;50.810;8.342;2022-11-15T16:10:24;9.37;;;5.83;;
5805;SDS011;2929;50.810;8.342;2022-11-15T16:12:53;12.93;;;5.40;;
5805;SDS011;2929;50.810;8.342;2022-11-15T16:15:21;8.90;;;4.93;;
5805;SDS011;2929;50.810;8.342;2022-11-15T16:17:52;10.13;;;5.80;;
5805;SDS011;2929;50.810;8.342;2022-11-15T16:20:29;9.93;;;5.10;;
5805;SDS011;2929;50.810;8.342;2022-11-15T16:23:00;13.97;;;5.70;;
5805;SDS011;2929;50.810;8.342;2022-11-15T16:25:27;8.73;;;5.40;;
5805;SDS011;2929;50.810;8.342;2022-11-15T16:27:55;13.63;;;4.60;;
5805;SDS011;2929;50.810;8.342;2022-11-15T16:30:22;8.77;;;5.40;;
5805;SDS011;2929;50.810;8.342;2022-11-15T16:32:49;12.53;;;6.20;;
5805;SDS011;2929;50.810;8.342;2022-11-15T16:35:19;12.50;;;5.90;;
5805;SDS011;2929;50.810;8.342;2022-11-15T16:37:46;9.60;;;5.13;;
5805;SDS011;2929;50.810;8.342;2022-11-15T16:40:24;12.50;;;5.00;;
5805;SDS011;2929;50.810;8.342;2022-11-15T16:42:53;10.50;;;5.63;;
5805;SDS011;2929;50.810;8.342;2022-11-15T16:45:21;9.03;;;6.20;;
5805;SDS011;2929;50.810;8.342;2022-11-15T16:47:48;9.87;;;4.40;;
5805;SDS011;2929;50.810;8.342;2022-11-15T16:50:20;12.53;;;4.60;;
5805;SDS011;2929;50.810;8.342;2022-11-15T16:52:52;8.33;;;4.60;;
5805;SDS011;2929;50.810;8.342;2022-11-15T16:55:20;6.53;;;4.50;;
5805;SDS011;2929;50.810;8.342;2022-11-15T16:57:48;5.00;;;4.00;;
5805;SDS011;2929;50.810;8.342;2022-11-15T17:00:17;6.03;;;4.63;;
5805;SDS011;2929;50.810;8.342;2022-11-15T17:02:46;6.33;;;4.53;;
5805;SDS011;2929;50.810;8.342;2022-11-15T17:05:14;9.23;;;4.40;;
5805;SDS011;2929;50.810;8.342;2022-11-15T17:07:45;6.73;;;4.30;;
5805;SDS011;2929;50.810;8.342;2022-11-15T17:10:14;5.33;;;3.83;;